Time;durP1;ratioP1;P1;durP2;ratioP2;P2;SDS_P1;SDS_P2;PMS_P1;PMS_P2;Temp;Humidity;BMP_temperature;BMP_pressure;BME280_temperature;BME280_humidity;BME280_pressure;Samples;Min_cycle;Max_cycle;Signal;HPM_P1;HPM_P2
2021/10/11 00:01:40;;;;;;;7.72;1.50;;;29.40;83.40;;;;;;5103940;28;20016;-40
2021/10/11 00:04:10;;;;;;;7.30;2.13;;;29.40;83.40;;;;;;5103060;28;20039;-37
2021/10/11 00:06:37;;;;;;;13.13;2.58;;;29.40;83.00;;;;;;5103785;28;20030;-39
2021/10/11 00:09:06;;;;;;;8.63;2.22;;;29.40;82.80;;;;;;5102409;28;20269;-41
2021/10/11 00:11:35;;;;;;;10.38;2.75;;;29.40;82.60;;;;;;5103689;28;20012;-44
2021/10/11 00:14:07;;;;;;;8.32;2.80;;;29.40;82.30;;;;;;5103834;28;20178;-38
2021/10/11 00:16:34;;;;;;;8.07;3.45;;;29.40;82.00;;;;;;5102907;28;20350;-42
2021/10/11 00:19:04;;;;;;;13.30;4.35;;;29.40;81.70;;;;;;5103494;28;20042;-40
2021/10/11 00:21:31;;;;;;;14.05;4.95;;;29.40;81.50;;;;;;5103772;28;20024;-45
2021/10/11 00:24:01;;;;;;;13.48;4.72;;;29.40;81.10;;;;;;5103483;28;20024;-39
2021/10/11 00:26:33;;;;;;;12.02;4.93;;;29.40;81.30;;;;;;5102068;28;20039;-42
2021/10/11 00:29:03;;;;;;;11.52;4.63;;;29.40;81.10;;;;;;5102324;28;20087;-45
2021/10/11 00:31:40;;;;;;;16.42;4.75;;;29.40;80.90;;;;;;5101928;28;20088;-38
2021/10/11 00:34:13;;;;;;;15.05;3.63;;;29.40;80.90;;;;;;5103559;28;20050;-41
2021/10/11 00:36:42;;;;;;;9.48;2.10;;;29.30;80.80;;;;;;5103364;28;20017;-38
2021/10/11 00:39:15;;;;;;;5.25;1.90;;;29.30;80.40;;;;;;5103426;28;20410;-38
2021/10/11 00:41:42;;;;;;;5.93;1.33;;;29.20;80.50;;;;;;5107263;28;20387;-37
2021/10/11 00:44:18;;;;;;;4.13;1.00;;;29.10;80.70;;;;;;5107196;28;20059;-46
2021/10/11 00:46:50;;;;;;;7.03;1.45;;;28.90;80.80;;;;;;5107230;28;20016;-41
2021/10/11 00:49:17;;;;;;;5.70;1.02;;;28.90;80.90;;;;;;5105932;28;20020;-39
2021/10/11 00:51:48;;;;;;;5.93;1.25;;;28.80;80.80;;;;;;5106082;28;20099;-36
2021/10/11 00:54:24;;;;;;;3.22;0.95;;;28.80;81.10;;;;;;5106703;28;20077;-37
2021/10/11 00:57:01;;;;;;;5.35;1.00;;;28.70;80.90;;;;;;5105859;28;20067;-36
2021/10/11 00:59:38;;;;;;;20.08;1.67;;;28.70;81.00;;;;;;5105772;28;20028;-38
2021/10/11 01:02:06;;;;;;;6.32;1.20;;;28.60;81.00;;;;;;5106669;28;20042;-41
2021/10/11 01:04:38;;;;;;;6.00;1.20;;;28.60;81.60;;;;;;5106854;28;20028;-43
2021/10/11 01:07:06;;;;;;;6.07;1.23;;;28.60;81.30;;;;;;5105276;28;20028;-39
2021/10/11 01:09:38;;;;;;;3.60;1.02;;;28.60;81.30;;;;;;5106008;28;20133;-40
2021/10/11 01:12:11;;;;;;;10.88;1.30;;;28.60;81.20;;;;;;5103813;28;20028;-37
2021/10/11 01:14:38;;;;;;;5.20;1.27;;;28.60;81.50;;;;;;5084855;28;20251;-45
2021/10/11 01:17:10;;;;;;;9.45;1.42;;;28.60;81.40;;;;;;5104809;28;20032;-38
2021/10/11 01:19:37;;;;;;;;;;;28.60;81.20;;;;;;5107287;28;20034;-37
2021/10/11 01:22:07;;;;;;;6.15;1.23;;;28.60;81.20;;;;;;5105402;28;19904;-43
2021/10/11 01:24:42;;;;;;;6.38;1.25;;;28.60;81.50;;;;;;5106217;28;20091;-40
2021/10/11 01:27:15;;;;;;;4.45;1.30;;;28.60;81.30;;;;;;5106413;28;20308;-38
2021/10/11 01:29:44;;;;;;;6.95;1.38;;;28.60;81.50;;;;;;5105318;28;20028;-44
2021/10/11 01:32:14;;;;;;;2.90;1.20;;;28.50;82.00;;;;;;5106410;28;20031;-39
2021/10/11 01:34:44;;;;;;;6.47;1.25;;;28.40;82.00;;;;;;5106250;28;20024;-39
2021/10/11 01:37:27;;;;;;;9.95;1.92;;;28.40;82.30;;;;;;5104979;28;20343;-40
2021/10/11 01:40:05;;;;;;;11.48;1.95;;;28.40;82.20;;;;;;5105688;28;20059;-42
2021/10/11 01:42:32;;;;;;;11.68;1.70;;;28.50;82.00;;;;;;5104930;28;20032;-40
2021/10/11 01:45:11;;;;;;;9.00;2.13;;;28.50;82.30;;;;;;5106165;28;20031;-46
2021/10/11 01:47:38;;;;;;;10.00;3.13;;;28.50;82.30;;;;;;5103507;28;20024;-37
2021/10/11 01:50:09;;;;;;;13.68;3.80;;;28.50;82.40;;;;;;5104664;28;20028;-37
2021/10/11 01:52:40;;;;;;;10.07;3.13;;;28.50;82.10;;;;;;5105407;28;20301;-44
2021/10/11 01:55:12;;;;;;;16.30;3.35;;;28.40;82.40;;;;;;5088051;28;20031;-44
2021/10/11 01:57:39;;;;;;;;;;;28.50;82.50;;;;;;5105346;28;20039;-46
2021/10/11 02:00:18;;;;;;;5.32;2.55;;;28.60;82.80;;;;;;5104104;28;19908;-44
2021/10/11 02:02:47;;;;;;;7.95;2.75;;;28.60;82.90;;;;;;5105689;28;20012;-41
2021/10/11 02:05:16;;;;;;;11.88;2.50;;;28.70;82.80;;;;;;5104244;28;20220;-43
2021/10/11 02:07:46;;;;;;;8.10;2.38;;;28.70;82.80;;;;;;5088152;28;20028;-52
2021/10/11 02:10:13;;;;;;;10.52;2.47;;;28.70;83.20;;;;;;5105578;28;20020;-42
2021/10/11 02:12:43;;;;;;;9.02;2.55;;;28.80;83.90;;;;;;5105515;28;20031;-44
2021/10/11 02:15:30;;;;;;;9.65;2.60;;;28.80;84.30;;;;;;5104620;28;20028;-44
2021/10/11 02:18:04;;;;;;;8.00;2.72;;;28.80;84.60;;;;;;5042406;28;20148;-46
2021/10/11 02:20:35;;;;;;;6.03;3.10;;;28.80;84.60;;;;;;5026545;28;20040;-50
2021/10/11 02:23:03;;;;;;;5.47;2.80;;;28.90;85.40;;;;;;5026347;28;20057;-45
2021/10/11 02:25:32;;;;;;;7.60;2.80;;;28.90;85.80;;;;;;5025796;28;20034;-48
2021/10/11 02:28:03;;;;;;;5.38;2.67;;;28.90;85.80;;;;;;5043239;28;20033;-45
2021/10/11 02:30:32;;;;;;;6.00;2.30;;;28.90;86.20;;;;;;5040333;28;20075;-44
2021/10/11 02:33:22;;;;;;;5.18;2.10;;;28.90;86.60;;;;;;5003514;28;20110;-46
2021/10/11 02:35:50;;;;;;;3.15;2.03;;;28.90;86.80;;;;;;4987127;28;20101;-45
2021/10/11 02:38:27;;;;;;;3.53;2.08;;;28.90;86.80;;;;;;5003438;28;20033;-45
2021/10/11 02:40:53;;;;;;;6.32;1.70;;;28.90;86.70;;;;;;4971979;28;20038;-45
2021/10/11 02:43:26;;;;;;;5.85;1.92;;;28.90;86.50;;;;;;5003232;28;20123;-47
2021/10/11 02:45:54;;;;;;;2.83;1.90;;;28.90;86.60;;;;;;5003327;28;20038;-49
2021/10/11 02:48:24;;;;;;;3.63;1.83;;;28.90;86.60;;;;;;5027215;28;20021;-43
2021/10/11 02:50:54;;;;;;;2.38;1.70;;;28.90;86.60;;;;;;5082887;28;20075;-47
2021/10/11 02:53:20;;;;;;;2.95;1.60;;;28.90;86.30;;;;;;5066112;28;20067;-41
2021/10/11 02:55:47;;;;;;;2.10;1.63;;;28.90;86.00;;;;;;5065343;28;20089;-46
2021/10/11 02:58:14;;;;;;;4.63;1.50;;;28.90;86.40;;;;;;5065805;28;20229;-48
2021/10/11 03:00:40;;;;;;;4.03;1.50;;;28.90;85.80;;;;;;5082529;28;20068;-47
2021/10/11 03:03:08;;;;;;;6.00;1.50;;;28.90;85.80;;;;;;5081504;28;20021;-50
2021/10/11 03:05:35;;;;;;;3.28;1.10;;;28.90;86.00;;;;;;5082513;28;20104;-46
2021/10/11 03:08:04;;;;;;;3.38;1.42;;;28.90;86.10;;;;;;5082401;28;20013;-46
2021/10/11 03:10:31;;;;;;;4.88;1.58;;;28.90;86.00;;;;;;5091075;28;20032;-49
2021/10/11 03:12:58;;;;;;;17.48;2.50;;;28.90;86.10;;;;;;5104458;28;20181;-45
2021/10/11 03:15:25;;;;;;;24.00;5.00;;;28.90;86.20;;;;;;5104861;28;20234;-51
2021/10/11 03:17:52;;;;;;;10.45;2.47;;;28.90;86.50;;;;;;5104254;28;20028;-47
2021/10/11 03:20:19;;;;;;;30.65;4.13;;;28.90;86.40;;;;;;5104734;28;20189;-46
2021/10/11 03:22:45;;;;;;;35.92;4.07;;;28.90;86.40;;;;;;5104472;28;20256;-44
2021/10/11 03:25:12;;;;;;;45.40;5.57;;;28.90;86.40;;;;;;5103992;28;20328;-47
2021/10/11 03:27:39;;;;;;;35.58;4.43;;;28.90;86.50;;;;;;5104115;28;20032;-43
2021/10/11 03:30:06;;;;;;;26.77;4.28;;;28.90;86.40;;;;;;5104641;28;20012;-44
2021/10/11 03:32:32;;;;;;;33.67;4.05;;;28.90;86.50;;;;;;5103964;28;20035;-46
2021/10/11 03:34:59;;;;;;;38.53;4.82;;;28.90;86.50;;;;;;5104521;28;20020;-51
2021/10/11 03:37:26;;;;;;;25.25;3.00;;;28.80;86.60;;;;;;5104163;28;20024;-48
2021/10/11 03:39:52;;;;;;;20.00;3.13;;;28.80;86.60;;;;;;5103922;28;20008;-41
2021/10/11 03:42:19;;;;;;;14.18;2.35;;;28.80;86.50;;;;;;5104068;28;20020;-52
2021/10/11 03:44:45;;;;;;;13.10;2.42;;;28.80;86.50;;;;;;5104382;28;20024;-53
2021/10/11 03:47:12;;;;;;;9.23;2.55;;;28.80;86.70;;;;;;5103874;28;20032;-47
2021/10/11 03:49:39;;;;;;;9.68;2.47;;;28.80;86.80;;;;;;5104386;28;20062;-44
2021/10/11 03:52:05;;;;;;;6.55;2.30;;;28.80;87.10;;;;;;5103977;28;20027;-50
2021/10/11 03:54:32;;;;;;;5.97;1.65;;;28.80;87.10;;;;;;5103759;28;20071;-46
2021/10/11 03:56:59;;;;;;;6.88;2.10;;;28.80;87.30;;;;;;5103751;28;20056;-49
2021/10/11 03:59:26;;;;;;;2.83;1.58;;;28.80;87.30;;;;;;5104160;28;20288;-50
2021/10/11 04:01:52;;;;;;;5.40;1.42;;;28.80;87.30;;;;;;5103889;28;20035;-46
2021/10/11 04:04:21;;;;;;;5.97;1.58;;;28.80;87.30;;;;;;5104063;28;20267;-44
2021/10/11 04:06:47;;;;;;;1.85;1.30;;;28.80;87.40;;;;;;5103866;28;20050;-47
2021/10/11 04:09:15;;;;;;;3.65;1.17;;;28.80;87.30;;;;;;5102330;28;20545;-46
2021/10/11 04:11:42;;;;;;;4.60;1.50;;;28.80;87.30;;;;;;5102321;28;20287;-51
2021/10/11 04:14:08;;;;;;;2.75;1.25;;;28.80;87.30;;;;;;5103447;28;20024;-49
2021/10/11 04:16:35;;;;;;;4.47;1.80;;;28.80;87.40;;;;;;5107917;28;20024;-52
2021/10/11 04:19:02;;;;;;;4.22;1.63;;;28.80;87.50;;;;;;5107823;28;20031;-48
2021/10/11 04:21:28;;;;;;;3.55;2.00;;;28.80;87.40;;;;;;5107854;28;20220;-45
2021/10/11 04:23:55;;;;;;;3.53;1.80;;;28.70;87.50;;;;;;5107846;28;20077;-45
2021/10/11 04:26:22;;;;;;;6.03;1.73;;;28.70;87.40;;;;;;5107448;28;20024;-53
2021/10/11 04:28:48;;;;;;;4.13;1.50;;;28.70;87.60;;;;;;5107611;28;20020;-50
2021/10/11 04:31:15;;;;;;;5.28;1.90;;;28.70;87.70;;;;;;5107672;28;20075;-49
2021/10/11 04:33:41;;;;;;;5.05;1.50;;;28.70;87.70;;;;;;5107521;28;20028;-46
2021/10/11 04:36:09;;;;;;;1.88;1.23;;;28.70;87.80;;;;;;5107582;28;20117;-47
2021/10/11 04:38:36;;;;;;;4.78;1.40;;;28.70;87.80;;;;;;5107556;28;20028;-47
2021/10/11 04:41:02;;;;;;;1.50;1.10;;;28.70;88.00;;;;;;5107354;28;20019;-53
2021/10/11 04:43:29;;;;;;;2.92;1.33;;;28.70;88.00;;;;;;5107389;28;20304;-48
2021/10/11 04:45:55;;;;;;;2.58;1.17;;;28.70;88.30;;;;;;5107332;28;20198;-46
2021/10/11 04:48:22;;;;;;;3.00;1.20;;;28.70;88.30;;;;;;5107361;28;20255;-47
2021/10/11 04:50:48;;;;;;;2.60;1.20;;;28.70;88.50;;;;;;5107160;28;20016;-45
2021/10/11 04:53:15;;;;;;;5.85;1.65;;;28.70;88.60;;;;;;5107123;28;20117;-46
2021/10/11 04:55:42;;;;;;;5.00;1.42;;;28.70;89.00;;;;;;5107065;28;20021;-50
2021/10/11 04:58:08;;;;;;;2.38;1.33;;;28.70;89.30;;;;;;5106962;28;20331;-51
2021/10/11 05:00:36;;;;;;;5.43;2.10;;;28.70;89.80;;;;;;5107360;28;20027;-51
2021/10/11 05:03:03;;;;;;;11.05;2.70;;;28.60;90.10;;;;;;5106851;28;20020;-52
2021/10/11 05:05:32;;;;;;;10.02;2.72;;;28.60;90.20;;;;;;5107325;28;20031;-42
2021/10/11 05:07:59;;;;;;;9.57;2.45;;;28.60;90.40;;;;;;5106965;28;20033;-43
2021/10/11 05:10:26;;;;;;;9.73;2.97;;;28.60;90.40;;;;;;5107288;28;20016;-44
2021/10/11 05:12:53;;;;;;;8.70;2.50;;;28.60;90.60;;;;;;5106875;28;20020;-52
2021/10/11 05:15:19;;;;;;;8.82;2.33;;;28.60;90.60;;;;;;5106749;28;20027;-54
2021/10/11 05:17:46;;;;;;;7.20;2.38;;;28.60;90.80;;;;;;5106651;28;20027;-52
2021/10/11 05:20:13;;;;;;;7.53;2.47;;;28.60;90.90;;;;;;5107072;28;20208;-43
2021/10/11 05:22:40;;;;;;;6.82;2.08;;;28.60;90.90;;;;;;5106793;28;20361;-47
2021/10/11 05:25:08;;;;;;;7.90;2.13;;;28.60;91.00;;;;;;5106771;28;20073;-45
2021/10/11 05:27:34;;;;;;;4.70;1.67;;;28.60;91.00;;;;;;5105462;28;20088;-48
2021/10/11 05:30:02;;;;;;;10.05;2.38;;;28.60;91.00;;;;;;5106841;28;20323;-50
2021/10/11 05:32:29;;;;;;;4.85;1.63;;;28.50;91.10;;;;;;5106338;28;20027;-51
2021/10/11 05:34:58;;;;;;;7.15;2.10;;;28.50;91.10;;;;;;5106871;28;20062;-41
2021/10/11 05:37:26;;;;;;;4.30;1.83;;;28.50;91.20;;;;;;5106255;28;20396;-44
2021/10/11 05:39:53;;;;;;;3.47;1.70;;;28.50;91.20;;;;;;5106546;28;20020;-48
2021/10/11 05:42:20;;;;;;;5.07;1.75;;;28.50;91.20;;;;;;5106201;28;20027;-41
2021/10/11 05:44:46;;;;;;;6.40;2.05;;;28.50;91.30;;;;;;5106430;28;20027;-46
2021/10/11 05:47:13;;;;;;;4.22;1.75;;;28.50;91.20;;;;;;5105910;28;20028;-52
2021/10/11 05:49:40;;;;;;;3.70;1.55;;;28.50;91.20;;;;;;5106377;28;20083;-41
2021/10/11 05:52:27;;;;;;;8.13;3.38;;;28.40;91.20;;;;;;5106188;28;20016;-42
2021/10/11 05:54:53;;;;;;;7.97;3.30;;;28.50;91.20;;;;;;5102374;28;20032;-47
2021/10/11 05:57:20;;;;;;;6.07;3.00;;;28.40;91.10;;;;;;5105903;28;20044;-45
2021/10/11 05:59:47;;;;;;;5.15;2.50;;;28.40;91.20;;;;;;5106082;28;20328;-46
2021/10/11 06:02:13;;;;;;;5.43;2.10;;;28.40;91.20;;;;;;5105945;28;20023;-43
2021/10/11 06:04:41;;;;;;;5.43;1.90;;;28.40;91.10;;;;;;5106095;28;20105;-50
2021/10/11 06:07:08;;;;;;;4.80;2.25;;;28.40;91.20;;;;;;5105609;28;20031;-49
2021/10/11 06:09:34;;;;;;;3.58;2.00;;;28.40;91.20;;;;;;5105868;28;20216;-44
2021/10/11 06:12:01;;;;;;;4.88;2.20;;;28.40;91.20;;;;;;5105799;28;20371;-54
2021/10/11 06:14:27;;;;;;;6.57;2.50;;;28.40;91.20;;;;;;5105762;28;20178;-46
2021/10/11 06:16:54;;;;;;;4.10;2.50;;;28.30;91.20;;;;;;5105518;28;20388;-46
2021/10/11 06:19:21;;;;;;;6.10;4.47;;;28.30;91.30;;;;;;5105639;28;20110;-54
2021/10/11 06:21:47;;;;;;;12.48;7.93;;;28.30;91.30;;;;;;5105454;28;20016;-44
2021/10/11 06:24:14;;;;;;;12.50;8.90;;;28.30;91.30;;;;;;5105422;28;20032;-51
2021/10/11 06:26:41;;;;;;;11.57;6.60;;;28.30;91.40;;;;;;5105184;28;20087;-47
2021/10/11 06:29:08;;;;;;;8.57;5.45;;;28.30;91.40;;;;;;5105479;28;20028;-42
2021/10/11 06:31:34;;;;;;;7.97;5.05;;;28.30;91.40;;;;;;5105155;28;20014;-55
2021/10/11 06:34:01;;;;;;;7.40;5.65;;;28.30;91.50;;;;;;5105352;28;20087;-45
2021/10/11 06:36:29;;;;;;;11.95;6.78;;;28.30;91.50;;;;;;5105140;28;20382;-48
2021/10/11 06:38:55;;;;;;;8.63;6.50;;;28.30;91.50;;;;;;5104940;28;20073;-44
2021/10/11 06:41:22;;;;;;;8.45;4.63;;;28.30;91.50;;;;;;5105048;28;20020;-45
2021/10/11 06:43:48;;;;;;;6.13;3.83;;;28.30;91.60;;;;;;5105149;28;20027;-51
2021/10/11 06:46:15;;;;;;;9.93;3.25;;;28.30;91.60;;;;;;5104802;28;20027;-46
2021/10/11 06:48:41;;;;;;;5.13;2.60;;;28.30;91.60;;;;;;5104999;28;20032;-51
2021/10/11 06:51:08;;;;;;;5.22;2.83;;;28.20;91.60;;;;;;5104888;28;20023;-43
2021/10/11 06:53:36;;;;;;;3.80;2.30;;;28.20;91.60;;;;;;5104768;28;20093;-46
2021/10/11 06:56:03;;;;;;;6.55;2.17;;;28.20;91.60;;;;;;5104590;28;20024;-52
2021/10/11 06:58:30;;;;;;;6.20;1.98;;;28.20;91.70;;;;;;5104744;28;20020;-50
2021/10/11 07:00:56;;;;;;;9.23;2.40;;;28.20;91.70;;;;;;5104658;28;20027;-48
2021/10/11 07:03:24;;;;;;;4.65;1.70;;;28.20;91.70;;;;;;5104684;28;20024;-44
2021/10/11 07:05:56;;;;;;;8.82;1.60;;;28.20;91.70;;;;;;5104485;28;20028;-46
2021/10/11 07:08:23;;;;;;;;;;;28.20;91.70;;;;;;5104813;28;20019;-48
2021/10/11 07:10:53;;;;;;;4.32;1.77;;;28.20;91.60;;;;;;5104464;28;20203;-48
2021/10/11 07:13:20;;;;;;;4.30;1.42;;;28.20;91.70;;;;;;5104423;28;20024;-41
2021/10/11 07:15:47;;;;;;;5.43;1.33;;;28.10;91.70;;;;;;5104271;28;20024;-45
2021/10/11 07:18:13;;;;;;;3.13;1.35;;;28.10;91.70;;;;;;5104387;28;20054;-49
2021/10/11 07:20:44;;;;;;;4.75;1.33;;;28.10;91.70;;;;;;5104372;28;20095;-45
2021/10/11 07:23:12;;;;;;;4.35;1.40;;;28.10;91.70;;;;;;5104142;28;20030;-46
2021/10/11 07:25:42;;;;;;;3.25;1.30;;;28.10;91.80;;;;;;5104287;28;20378;-45
2021/10/11 07:28:09;;;;;;;4.80;1.50;;;28.10;91.70;;;;;;5104073;28;20036;-43
2021/10/11 07:30:36;;;;;;;4.28;1.15;;;28.10;91.70;;;;;;5104247;28;20027;-45
2021/10/11 07:33:05;;;;;;;4.20;1.48;;;28.10;91.80;;;;;;5104367;28;20020;-42
2021/10/11 07:35:32;;;;;;;2.78;1.40;;;28.10;91.80;;;;;;5104603;28;20028;-47
2021/10/11 07:38:00;;;;;;;2.92;1.48;;;28.10;91.80;;;;;;5104063;28;20028;-46
2021/10/11 07:40:27;;;;;;;2.63;1.30;;;28.10;91.80;;;;;;5104604;28;20032;-49
2021/10/11 07:42:54;;;;;;;3.58;1.45;;;28.00;91.70;;;;;;5103997;28;20038;-51
2021/10/11 07:45:20;;;;;;;3.78;1.35;;;28.00;91.70;;;;;;5103853;28;20104;-52
2021/10/11 07:47:48;;;;;;;4.40;1.48;;;28.10;91.80;;;;;;5103900;28;20036;-44
2021/10/11 07:50:15;;;;;;;3.88;1.45;;;28.00;91.70;;;;;;5103876;28;20059;-47
2021/10/11 07:52:41;;;;;;;4.53;1.50;;;28.10;91.70;;;;;;5103911;28;20023;-55
2021/10/11 07:55:09;;;;;;;6.05;1.40;;;28.00;91.70;;;;;;5104412;28;20028;-48
2021/10/11 07:57:36;;;;;;;2.88;1.48;;;28.00;91.70;;;;;;5103916;28;20288;-41
2021/10/11 08:00:05;;;;;;;2.55;1.65;;;28.00;91.80;;;;;;5104174;28;20028;-47
2021/10/11 08:02:32;;;;;;;7.18;1.73;;;28.00;91.80;;;;;;5103997;28;20020;-51
2021/10/11 08:04:58;;;;;;;2.78;1.63;;;28.00;91.80;;;;;;5104295;28;20020;-43
2021/10/11 08:07:25;;;;;;;5.78;1.50;;;28.00;91.80;;;;;;5103719;28;20181;-47
2021/10/11 08:09:51;;;;;;;3.75;1.65;;;28.00;91.90;;;;;;5103940;28;20024;-48
2021/10/11 08:12:18;;;;;;;5.18;1.50;;;28.00;91.90;;;;;;5103843;28;20023;-43
2021/10/11 08:14:45;;;;;;;3.88;1.40;;;28.00;91.90;;;;;;5103905;28;20331;-48
2021/10/11 08:17:12;;;;;;;7.00;1.55;;;27.90;91.80;;;;;;5103905;28;20035;-55
2021/10/11 08:19:39;;;;;;;2.85;1.60;;;27.90;91.90;;;;;;5104107;28;20216;-55
2021/10/11 08:22:06;;;;;;;6.10;1.60;;;27.90;91.90;;;;;;5103621;28;20031;-50
2021/10/11 08:24:33;;;;;;;3.17;1.40;;;27.90;91.90;;;;;;5103887;28;20028;-46
2021/10/11 08:26:59;;;;;;;3.40;1.80;;;27.90;91.90;;;;;;5103524;28;20031;-43
2021/10/11 08:29:26;;;;;;;6.97;1.70;;;27.90;91.90;;;;;;5103444;28;20069;-49
2021/10/11 08:31:53;;;;;;;3.15;1.40;;;27.90;91.90;;;;;;5103565;28;20095;-46
2021/10/11 08:34:20;;;;;;;3.78;1.60;;;27.90;91.90;;;;;;5103799;28;20020;-45
2021/10/11 08:36:47;;;;;;;3.40;1.20;;;27.90;91.90;;;;;;5103501;28;20035;-48
2021/10/11 08:39:13;;;;;;;3.67;1.70;;;27.90;91.90;;;;;;5103782;28;20020;-51
2021/10/11 08:41:41;;;;;;;3.85;1.40;;;27.90;92.00;;;;;;5103679;28;20024;-46
2021/10/11 08:44:11;;;;;;;6.35;1.73;;;27.90;92.00;;;;;;5103499;28;20233;-46
2021/10/11 08:46:37;;;;;;;3.92;1.40;;;27.90;92.00;;;;;;5103402;28;20024;-47
2021/10/11 08:49:04;;;;;;;3.67;1.38;;;27.80;92.00;;;;;;5103654;28;20035;-46
2021/10/11 08:51:30;;;;;;;4.03;1.25;;;27.90;92.00;;;;;;5103549;28;20031;-44
2021/10/11 08:53:57;;;;;;;4.75;1.60;;;27.80;92.00;;;;;;5103594;28;20020;-44
2021/10/11 08:56:24;;;;;;;4.00;1.38;;;27.80;92.00;;;;;;5103207;28;20052;-41
2021/10/11 08:58:51;;;;;;;3.55;1.60;;;27.80;92.00;;;;;;5103267;28;20247;-44
2021/10/11 09:01:23;;;;;;;2.92;1.40;;;27.80;92.00;;;;;;5103703;28;20216;-48
2021/10/11 09:03:50;;;;;;;4.90;1.63;;;27.80;92.00;;;;;;5107081;28;20095;-51
2021/10/11 09:06:17;;;;;;;4.10;1.70;;;27.80;92.00;;;;;;5106705;28;20031;-43
2021/10/11 09:08:43;;;;;;;4.50;1.27;;;27.80;92.00;;;;;;5106905;28;20099;-49
2021/10/11 09:11:13;;;;;;;4.47;1.45;;;27.80;92.10;;;;;;5106842;28;20027;-45
2021/10/11 09:13:45;;;;;;;3.97;1.40;;;27.80;92.00;;;;;;5106691;28;20024;-53
2021/10/11 09:16:34;;;;;;;4.07;1.30;;;27.80;92.10;;;;;;5106692;28;20016;-45
2021/10/11 09:19:17;;;;;;;6.35;1.20;;;27.80;92.10;;;;;;5106776;28;20051;-45
2021/10/11 09:21:45;;;;;;;5.47;1.75;;;27.70;92.10;;;;;;5106611;28;20023;-48
2021/10/11 09:24:14;;;;;;;4.28;1.65;;;27.80;92.10;;;;;;5106577;28;20050;-41
2021/10/11 09:26:51;;;;;;;5.57;1.75;;;27.70;92.10;;;;;;5106539;28;20054;-44
2021/10/11 09:29:43;;;;;;;6.07;2.10;;;27.70;92.10;;;;;;5106617;28;20330;-44
2021/10/11 09:32:11;;;;;;;4.50;1.42;;;27.70;92.20;;;;;;5106410;28;20054;-49
2021/10/11 09:34:41;;;;;;;6.15;1.80;;;27.80;92.20;;;;;;5106609;28;20031;-51
2021/10/11 09:37:13;;;;;;;5.55;1.45;;;27.70;92.20;;;;;;5106325;28;20016;-44
2021/10/11 09:39:40;;;;;;;4.65;1.63;;;27.70;92.20;;;;;;5106578;28;20027;-45
2021/10/11 09:42:14;;;;;;;6.50;1.80;;;27.70;92.30;;;;;;5106137;28;20052;-44
2021/10/11 09:44:50;;;;;;;8.27;1.90;;;27.70;92.30;;;;;;5106457;28;20027;-44
2021/10/11 09:47:39;;;;;;;3.75;1.60;;;27.70;92.30;;;;;;5105981;28;20024;-41
2021/10/11 09:50:08;;;;;;;4.72;1.52;;;27.70;92.20;;;;;;5106495;28;20028;-44
2021/10/11 09:52:36;;;;;;;5.72;1.42;;;27.70;92.20;;;;;;5105905;28;20057;-45
2021/10/11 09:55:05;;;;;;;5.40;1.85;;;27.70;92.20;;;;;;5106421;28;20130;-41
2021/10/11 09:57:32;;;;;;;6.07;1.65;;;27.70;92.20;;;;;;5105885;28;20050;-41
2021/10/11 10:00:10;;;;;;;7.85;1.80;;;27.70;92.20;;;;;;5106175;28;20023;-45
2021/10/11 10:02:42;;;;;;;3.20;1.50;;;27.70;92.30;;;;;;5105887;28;20211;-47
2021/10/11 10:05:18;;;;;;;4.03;1.77;;;27.70;92.30;;;;;;5106059;28;20047;-51
2021/10/11 10:07:52;;;;;;;3.72;1.70;;;27.70;92.30;;;;;;5105806;28;20057;-44
2021/10/11 10:10:24;;;;;;;6.25;2.00;;;27.70;92.30;;;;;;5105528;28;20047;-40
2021/10/11 10:12:53;;;;;;;3.92;1.63;;;27.70;92.40;;;;;;5105230;28;20047;-42
2021/10/11 10:15:46;;;;;;;5.38;1.48;;;27.70;92.40;;;;;;5105503;28;20193;-50
2021/10/11 10:18:18;;;;;;;4.32;1.58;;;27.70;92.40;;;;;;5102364;28;20073;-44
2021/10/11 10:21:00;;;;;;;6.57;1.70;;;27.70;92.50;;;;;;5105493;28;20358;-47
2021/10/11 10:23:32;;;;;;;5.75;1.80;;;27.70;92.50;;;;;;5105714;28;20048;-47
2021/10/11 10:26:04;;;;;;;2.90;1.60;;;27.70;92.50;;;;;;5105383;28;20050;-42
2021/10/11 10:28:52;;;;;;;3.30;1.30;;;27.70;92.50;;;;;;5105281;28;20364;-49
2021/10/11 10:31:36;;;;;;;4.40;1.55;;;27.60;92.50;;;;;;5105298;28;20016;-47
2021/10/11 10:34:27;;;;;;;2.00;1.50;;;27.60;92.50;;;;;;5105512;28;20087;-46
2021/10/11 10:37:11;;;;;;;6.53;1.60;;;27.60;92.50;;;;;;5105477;28;20046;-41
2021/10/11 10:39:47;;;;;;;3.28;1.52;;;27.60;92.50;;;;;;5105515;28;20032;-43
2021/10/11 10:42:28;;;;;;;6.07;1.70;;;27.60;92.50;;;;;;5105306;28;20326;-44
2021/10/11 10:44:56;;;;;;;5.30;1.95;;;27.60;92.50;;;;;;5105401;28;20189;-42
2021/10/11 10:47:37;;;;;;;5.70;1.80;;;27.60;92.50;;;;;;5104813;28;20320;-46
2021/10/11 10:50:14;;;;;;;5.45;1.80;;;27.60;92.50;;;;;;5105306;28;20052;-44
2021/10/11 10:52:41;;;;;;;7.22;1.95;;;27.60;92.50;;;;;;5105136;28;20079;-43
2021/10/11 10:55:08;;;;;;;6.13;1.77;;;27.60;92.60;;;;;;5105342;28;20028;-52
2021/10/11 10:57:34;;;;;;;4.88;1.83;;;27.60;92.60;;;;;;5104755;28;20267;-46
2021/10/11 11:00:13;;;;;;;6.47;1.85;;;27.60;92.60;;;;;;5104607;28;20031;-54
2021/10/11 11:02:47;;;;;;;7.35;1.80;;;27.60;92.50;;;;;;5104608;28;20246;-42
2021/10/11 11:05:15;;;;;;;7.88;1.63;;;27.60;92.60;;;;;;5104849;28;20055;-45
2021/10/11 11:07:44;;;;;;;10.48;1.90;;;27.60;92.60;;;;;;5104643;28;20413;-46
2021/10/11 11:10:13;;;;;;;6.25;1.90;;;27.60;92.60;;;;;;5104917;28;20056;-50
2021/10/11 11:12:54;;;;;;;5.15;1.80;;;27.60;92.60;;;;;;5104387;28;20091;-45
2021/10/11 11:15:34;;;;;;;4.13;1.80;;;27.60;92.60;;;;;;5104891;28;20028;-46
2021/10/11 11:18:08;;;;;;;8.00;2.20;;;27.60;92.60;;;;;;5104413;28;20061;-47
2021/10/11 11:20:37;;;;;;;7.25;2.25;;;27.60;92.70;;;;;;5104482;28;20086;-49
2021/10/11 11:23:07;;;;;;;6.70;2.33;;;27.60;92.70;;;;;;5104238;28;20075;-50
2021/10/11 11:25:39;;;;;;;6.57;1.77;;;27.60;92.80;;;;;;5103380;28;20024;-49
2021/10/11 11:28:10;;;;;;;6.75;1.92;;;27.60;92.80;;;;;;5104465;28;20031;-46
2021/10/11 11:30:38;;;;;;;7.00;2.20;;;27.60;92.70;;;;;;5104584;28;20047;-50
2021/10/11 11:33:06;;;;;;;5.45;2.17;;;27.60;92.80;;;;;;5104544;28;20329;-52
2021/10/11 11:35:47;;;;;;;4.07;1.73;;;27.60;92.80;;;;;;5104346;28;20300;-47
2021/10/11 11:38:16;;;;;;;5.10;1.75;;;27.60;92.80;;;;;;5104168;28;20058;-43
2021/10/11 11:40:54;;;;;;;5.32;1.80;;;27.60;92.80;;;;;;5104128;28;20092;-51
2021/10/11 11:43:22;;;;;;;5.93;1.90;;;27.60;92.70;;;;;;5104045;28;20016;-47
2021/10/11 11:45:54;;;;;;;4.85;2.15;;;27.60;92.80;;;;;;5103967;28;20236;-42
2021/10/11 11:48:27;;;;;;;5.32;1.95;;;27.60;92.80;;;;;;5103888;28;20020;-46
2021/10/11 11:50:56;;;;;;;6.95;2.47;;;27.60;92.80;;;;;;5104236;28;20012;-50
2021/10/11 11:53:24;;;;;;;5.38;2.42;;;27.60;92.90;;;;;;5104022;28;20047;-47
2021/10/11 11:55:53;;;;;;;7.90;2.53;;;27.50;92.90;;;;;;5103879;28;20058;-46
2021/10/11 11:58:26;;;;;;;6.38;2.72;;;27.50;92.90;;;;;;5103923;28;20051;-51
2021/10/11 12:00:58;;;;;;;8.27;2.50;;;27.50;93.00;;;;;;5102558;28;20020;-48
2021/10/11 12:03:26;;;;;;;;;;;27.50;93.10;;;;;;5104326;28;20016;-52
2021/10/11 12:05:55;;;;;;;3.75;2.00;;;27.50;93.10;;;;;;5103779;28;19907;-53
2021/10/11 12:08:26;;;;;;;6.93;2.38;;;27.50;93.20;;;;;;5103782;28;20061;-44
2021/10/11 12:10:56;;;;;;;5.07;2.08;;;27.50;93.20;;;;;;5103840;28;20016;-40
2021/10/11 12:13:27;;;;;;;5.75;2.33;;;27.50;93.30;;;;;;5103819;28;20016;-53
2021/10/11 12:16:01;;;;;;;5.88;2.25;;;27.50;93.30;;;;;;5103808;28;20024;-49
2021/10/11 12:18:35;;;;;;;5.07;2.40;;;27.40;93.20;;;;;;5103892;28;20031;-40
2021/10/11 12:21:02;;;;;;;2.97;2.10;;;27.50;93.30;;;;;;5103689;28;20024;-45
2021/10/11 12:23:37;;;;;;;4.63;2.22;;;27.50;93.30;;;;;;5103798;28;20020;-45
2021/10/11 12:26:04;;;;;;;5.15;2.15;;;27.40;93.30;;;;;;5103541;28;20020;-48
2021/10/11 12:28:31;;;;;;;5.15;2.53;;;27.50;93.30;;;;;;5103877;28;20016;-51
2021/10/11 12:31:06;;;;;;;4.93;2.10;;;27.50;93.30;;;;;;5103769;28;20304;-41
2021/10/11 12:33:37;;;;;;;3.38;1.88;;;27.50;93.20;;;;;;5103505;28;20020;-49
2021/10/11 12:36:05;;;;;;;5.40;1.90;;;27.50;93.10;;;;;;5105196;28;20024;-47
2021/10/11 12:38:40;;;;;;;6.35;2.67;;;27.40;93.00;;;;;;5107508;28;20038;-44
2021/10/11 12:41:17;;;;;;;6.85;2.25;;;27.50;93.10;;;;;;5107527;28;20427;-47
2021/10/11 12:44:01;;;;;;;8.75;3.20;;;27.40;93.00;;;;;;5107531;28;20061;-50
2021/10/11 12:46:27;;;;;;;11.70;3.53;;;27.40;93.10;;;;;;5107270;28;20032;-52
2021/10/11 12:48:56;;;;;;;5.32;2.70;;;27.40;93.10;;;;;;5107453;28;20020;-52
2021/10/11 12:51:31;;;;;;;5.60;2.75;;;27.40;93.00;;;;;;5107199;28;20016;-42
2021/10/11 12:54:04;;;;;;;6.15;2.55;;;27.30;92.80;;;;;;5107537;28;20039;-51
2021/10/11 12:56:32;;;;;;;5.18;2.58;;;27.40;92.80;;;;;;5107089;28;20044;-44
2021/10/11 12:59:07;;;;;;;5.75;2.58;;;27.30;92.80;;;;;;5107467;28;20062;-49